sensor_id;sensor_type;location;lat;lon;timestamp;P1;durP1;ratioP1;P2;durP2;ratioP2
27145;SDS011;17980;51.744;7.190;2022-11-20T00:01:20;125.50;;;104.10;;
27145;SDS011;17980;51.744;7.190;2022-11-20T00:03:49;18.33;;;13.63;;
27145;SDS011;17980;51.744;7.190;2022-11-20T00:06:27;18.60;;;13.37;;
27145;SDS011;17980;51.744;7.190;2022-11-20T00:08:54;18.53;;;14.57;;
27145;SDS011;17980;51.744;7.190;2022-11-20T00:11:23;20.80;;;14.93;;
27145;SDS011;17980;51.744;7.190;2022-11-20T00:13:53;20.10;;;14.50;;
27145;SDS011;17980;51.744;7.190;2022-11-20T00:16:30;19.53;;;14.73;;
27145;SDS011;17980;51.744;7.190;2022-11-20T00:21:35;20.17;;;15.13;;
27145;SDS011;17980;51.744;7.190;2022-11-20T00:24:02;18.47;;;13.03;;
27145;SDS011;17980;51.744;7.190;2022-11-20T00:26:39;18.87;;;13.40;;
27145;SDS011;17980;51.744;7.190;2022-11-20T00:29:08;15.50;;;12.73;;
27145;SDS011;17980;51.744;7.190;2022-11-20T00:31:45;19.17;;;13.27;;
27145;SDS011;17980;51.744;7.190;2022-11-20T00:34:12;21.13;;;13.97;;
27145;SDS011;17980;51.744;7.190;2022-11-20T00:36:40;17.70;;;13.87;;
27145;SDS011;17980;51.744;7.190;2022-11-20T00:39:07;17.53;;;13.30;;
27145;SDS011;17980;51.744;7.190;2022-11-20T00:41:34;19.43;;;13.80;;
27145;SDS011;17980;51.744;7.190;2022-11-20T00:44:01;20.03;;;13.40;;
27145;SDS011;17980;51.744;7.190;2022-11-20T00:46:38;18.80;;;13.23;;
27145;SDS011;17980;51.744;7.190;2022-11-20T00:49:05;18.57;;;12.67;;
27145;SDS011;17980;51.744;7.190;2022-11-20T00:51:33;17.17;;;11.73;;
27145;SDS011;17980;51.744;7.190;2022-11-20T00:54:00;19.27;;;13.37;;
27145;SDS011;17980;51.744;7.190;2022-11-20T00:56:37;19.90;;;13.00;;
27145;SDS011;17980;51.744;7.190;2022-11-20T00:59:04;20.27;;;13.47;;
27145;SDS011;17980;51.744;7.190;2022-11-20T01:01:31;18.77;;;14.20;;
27145;SDS011;17980;51.744;7.190;2022-11-20T01:03:59;19.30;;;13.40;;
27145;SDS011;17980;51.744;7.190;2022-11-20T01:06:36;17.97;;;13.47;;
27145;SDS011;17980;51.744;7.190;2022-11-20T01:09:07;19.70;;;13.70;;
27145;SDS011;17980;51.744;7.190;2022-11-20T01:11:38;18.80;;;13.37;;
27145;SDS011;17980;51.744;7.190;2022-11-20T01:14:07;17.80;;;13.07;;
27145;SDS011;17980;51.744;7.190;2022-11-20T01:16:46;21.70;;;14.03;;
27145;SDS011;17980;51.744;7.190;2022-11-20T01:19:15;18.77;;;12.47;;
27145;SDS011;17980;51.744;7.190;2022-11-20T01:21:45;20.57;;;13.30;;
27145;SDS011;17980;51.744;7.190;2022-11-20T01:24:22;20.73;;;13.40;;
27145;SDS011;17980;51.744;7.190;2022-11-20T01:26:50;21.33;;;13.03;;
27145;SDS011;17980;51.744;7.190;2022-11-20T01:29:18;21.73;;;14.30;;
27145;SDS011;17980;51.744;7.190;2022-11-20T01:31:46;23.57;;;15.10;;
27145;SDS011;17980;51.744;7.190;2022-11-20T01:34:23;20.13;;;14.00;;
27145;SDS011;17980;51.744;7.190;2022-11-20T01:36:52;19.77;;;13.03;;
27145;SDS011;17980;51.744;7.190;2022-11-20T01:39:19;18.93;;;13.77;;
27145;SDS011;17980;51.744;7.190;2022-11-20T01:41:48;23.73;;;14.33;;
27145;SDS011;17980;51.744;7.190;2022-11-20T01:44:51;18.57;;;13.03;;
27145;SDS011;17980;51.744;7.190;2022-11-20T01:47:30;17.53;;;13.53;;
27145;SDS011;17980;51.744;7.190;2022-11-20T01:50:03;21.47;;;13.50;;
27145;SDS011;17980;51.744;7.190;2022-11-20T01:52:34;18.80;;;13.80;;
27145;SDS011;17980;51.744;7.190;2022-11-20T01:55:11;18.50;;;14.30;;
27145;SDS011;17980;51.744;7.190;2022-11-20T01:57:41;19.50;;;13.97;;
27145;SDS011;17980;51.744;7.190;2022-11-20T02:02:53;20.00;;;13.77;;
27145;SDS011;17980;51.744;7.190;2022-11-20T02:07:55;22.00;;;13.10;;
27145;SDS011;17980;51.744;7.190;2022-11-20T02:10:24;21.40;;;14.57;;
27145;SDS011;17980;51.744;7.190;2022-11-20T02:12:51;19.77;;;13.10;;
27145;SDS011;17980;51.744;7.190;2022-11-20T02:15:28;19.00;;;13.80;;
27145;SDS011;17980;51.744;7.190;2022-11-20T02:17:56;21.17;;;13.63;;
27145;SDS011;17980;51.744;7.190;2022-11-20T02:20:23;18.03;;;13.27;;
27145;SDS011;17980;51.744;7.190;2022-11-20T02:22:53;18.90;;;13.40;;
27145;SDS011;17980;51.744;7.190;2022-11-20T02:25:30;20.47;;;13.60;;
27145;SDS011;17980;51.744;7.190;2022-11-20T02:28:00;18.73;;;13.13;;
27145;SDS011;17980;51.744;7.190;2022-11-20T02:30:28;20.63;;;13.67;;
27145;SDS011;17980;51.744;7.190;2022-11-20T02:32:55;20.93;;;13.93;;
27145;SDS011;17980;51.744;7.190;2022-11-20T02:35:41;19.83;;;13.37;;
27145;SDS011;17980;51.744;7.190;2022-11-20T02:38:10;19.70;;;13.83;;
27145;SDS011;17980;51.744;7.190;2022-11-20T02:40:37;16.57;;;12.53;;
27145;SDS011;17980;51.744;7.190;2022-11-20T02:43:05;15.87;;;12.77;;
27145;SDS011;17980;51.744;7.190;2022-11-20T02:45:32;22.73;;;12.97;;
27145;SDS011;17980;51.744;7.190;2022-11-20T02:48:09;17.40;;;13.50;;
27145;SDS011;17980;51.744;7.190;2022-11-20T02:50:37;20.67;;;13.73;;
27145;SDS011;17980;51.744;7.190;2022-11-20T02:53:05;17.17;;;12.87;;
27145;SDS011;17980;51.744;7.190;2022-11-20T02:55:43;19.37;;;13.07;;
27145;SDS011;17980;51.744;7.190;2022-11-20T02:58:10;19.03;;;13.23;;
27145;SDS011;17980;51.744;7.190;2022-11-20T03:00:38;21.73;;;13.07;;
27145;SDS011;17980;51.744;7.190;2022-11-20T03:03:05;19.50;;;13.23;;
27145;SDS011;17980;51.744;7.190;2022-11-20T03:05:42;18.90;;;13.47;;
27145;SDS011;17980;51.744;7.190;2022-11-20T03:10:45;18.83;;;13.47;;
27145;SDS011;17980;51.744;7.190;2022-11-20T03:13:12;16.63;;;12.63;;
27145;SDS011;17980;51.744;7.190;2022-11-20T03:15:49;17.03;;;12.97;;
27145;SDS011;17980;51.744;7.190;2022-11-20T03:18:16;17.90;;;13.03;;
27145;SDS011;17980;51.744;7.190;2022-11-20T03:20:43;17.50;;;13.07;;
27145;SDS011;17980;51.744;7.190;2022-11-20T03:23:11;18.63;;;13.13;;
27145;SDS011;17980;51.744;7.190;2022-11-20T03:25:47;15.97;;;12.67;;
27145;SDS011;17980;51.744;7.190;2022-11-20T03:28:15;18.67;;;12.53;;
27145;SDS011;17980;51.744;7.190;2022-11-20T03:30:42;17.57;;;12.67;;
27145;SDS011;17980;51.744;7.190;2022-11-20T03:35:45;17.23;;;12.47;;
27145;SDS011;17980;51.744;7.190;2022-11-20T03:38:12;17.33;;;12.57;;
27145;SDS011;17980;51.744;7.190;2022-11-20T03:40:39;19.50;;;12.13;;
27145;SDS011;17980;51.744;7.190;2022-11-20T03:43:06;19.03;;;14.07;;
27145;SDS011;17980;51.744;7.190;2022-11-20T03:45:35;18.97;;;12.30;;
27145;SDS011;17980;51.744;7.190;2022-11-20T03:48:12;20.87;;;13.70;;
27145;SDS011;17980;51.744;7.190;2022-11-20T03:50:39;17.63;;;12.47;;
27145;SDS011;17980;51.744;7.190;2022-11-20T03:53:16;18.40;;;12.43;;
27145;SDS011;17980;51.744;7.190;2022-11-20T03:55:43;18.20;;;13.57;;
27145;SDS011;17980;51.744;7.190;2022-11-20T03:58:10;20.00;;;12.87;;
27145;SDS011;17980;51.744;7.190;2022-11-20T04:00:39;19.60;;;13.27;;
27145;SDS011;17980;51.744;7.190;2022-11-20T04:03:16;15.93;;;11.73;;
27145;SDS011;17980;51.744;7.190;2022-11-20T04:05:43;17.00;;;13.33;;
27145;SDS011;17980;51.744;7.190;2022-11-20T04:08:10;21.17;;;13.63;;
27145;SDS011;17980;51.744;7.190;2022-11-20T04:10:37;17.83;;;13.30;;
27145;SDS011;17980;51.744;7.190;2022-11-20T04:13:04;17.13;;;12.17;;
27145;SDS011;17980;51.744;7.190;2022-11-20T04:15:31;17.80;;;12.90;;
27145;SDS011;17980;51.744;7.190;2022-11-20T04:18:08;20.90;;;14.13;;
27145;SDS011;17980;51.744;7.190;2022-11-20T04:20:35;16.27;;;12.00;;
27145;SDS011;17980;51.744;7.190;2022-11-20T04:23:03;22.03;;;13.40;;
27145;SDS011;17980;51.744;7.190;2022-11-20T04:25:39;21.13;;;13.43;;
27145;SDS011;17980;51.744;7.190;2022-11-20T04:28:07;18.63;;;12.77;;
27145;SDS011;17980;51.744;7.190;2022-11-20T04:30:34;17.40;;;12.97;;
27145;SDS011;17980;51.744;7.190;2022-11-20T04:33:01;17.07;;;13.00;;
27145;SDS011;17980;51.744;7.190;2022-11-20T04:35:38;17.87;;;13.63;;
27145;SDS011;17980;51.744;7.190;2022-11-20T04:38:05;25.70;;;14.03;;
27145;SDS011;17980;51.744;7.190;2022-11-20T04:40:32;19.17;;;12.87;;
27145;SDS011;17980;51.744;7.190;2022-11-20T04:43:00;17.20;;;14.00;;
27145;SDS011;17980;51.744;7.190;2022-11-20T04:45:27;19.13;;;13.57;;
27145;SDS011;17980;51.744;7.190;2022-11-20T04:47:54;20.63;;;14.63;;
27145;SDS011;17980;51.744;7.190;2022-11-20T04:50:21;18.43;;;12.63;;
27145;SDS011;17980;51.744;7.190;2022-11-20T04:52:48;17.77;;;13.23;;
27145;SDS011;17980;51.744;7.190;2022-11-20T04:55:25;16.40;;;12.30;;
27145;SDS011;17980;51.744;7.190;2022-11-20T04:57:52;17.27;;;12.40;;
27145;SDS011;17980;51.744;7.190;2022-11-20T05:00:19;19.87;;;13.07;;
27145;SDS011;17980;51.744;7.190;2022-11-20T05:02:47;19.20;;;13.30;;
27145;SDS011;17980;51.744;7.190;2022-11-20T05:05:24;22.43;;;12.97;;
27145;SDS011;17980;51.744;7.190;2022-11-20T05:07:51;20.87;;;12.97;;
27145;SDS011;17980;51.744;7.190;2022-11-20T05:10:18;18.50;;;12.70;;
27145;SDS011;17980;51.744;7.190;2022-11-20T05:12:45;20.23;;;12.37;;
27145;SDS011;17980;51.744;7.190;2022-11-20T05:15:13;21.03;;;13.63;;
27145;SDS011;17980;51.744;7.190;2022-11-20T05:17:49;17.77;;;12.67;;
27145;SDS011;17980;51.744;7.190;2022-11-20T05:20:18;18.93;;;13.77;;
27145;SDS011;17980;51.744;7.190;2022-11-20T05:22:45;19.27;;;13.77;;
27145;SDS011;17980;51.744;7.190;2022-11-20T05:25:22;21.90;;;14.20;;
27145;SDS011;17980;51.744;7.190;2022-11-20T05:27:49;18.20;;;13.53;;
27145;SDS011;17980;51.744;7.190;2022-11-20T05:30:17;23.60;;;14.13;;
27145;SDS011;17980;51.744;7.190;2022-11-20T05:32:44;17.33;;;12.87;;
27145;SDS011;17980;51.744;7.190;2022-11-20T05:35:21;20.37;;;13.67;;
27145;SDS011;17980;51.744;7.190;2022-11-20T05:37:48;19.20;;;12.27;;
27145;SDS011;17980;51.744;7.190;2022-11-20T05:40:15;20.90;;;14.87;;
27145;SDS011;17980;51.744;7.190;2022-11-20T05:42:42;21.83;;;14.33;;
27145;SDS011;17980;51.744;7.190;2022-11-20T05:45:10;20.77;;;14.47;;
27145;SDS011;17980;51.744;7.190;2022-11-20T05:47:47;20.43;;;13.87;;
27145;SDS011;17980;51.744;7.190;2022-11-20T05:50:14;20.97;;;14.93;;
27145;SDS011;17980;51.744;7.190;2022-11-20T05:52:41;20.33;;;14.33;;
27145;SDS011;17980;51.744;7.190;2022-11-20T05:55:18;19.27;;;14.03;;
27145;SDS011;17980;51.744;7.190;2022-11-20T05:57:45;22.87;;;15.07;;
27145;SDS011;17980;51.744;7.190;2022-11-20T06:02:49;19.70;;;13.83;;
27145;SDS011;17980;51.744;7.190;2022-11-20T06:05:16;20.93;;;14.27;;
27145;SDS011;17980;51.744;7.190;2022-11-20T06:07:53;20.97;;;14.00;;
27145;SDS011;17980;51.744;7.190;2022-11-20T06:10:20;21.47;;;14.23;;
27145;SDS011;17980;51.744;7.190;2022-11-20T06:12:48;20.67;;;14.90;;
27145;SDS011;17980;51.744;7.190;2022-11-20T06:15:15;20.37;;;15.27;;
27145;SDS011;17980;51.744;7.190;2022-11-20T06:17:52;21.63;;;15.70;;
27145;SDS011;17980;51.744;7.190;2022-11-20T06:20:19;22.07;;;14.80;;
27145;SDS011;17980;51.744;7.190;2022-11-20T06:22:46;21.60;;;15.17;;
27145;SDS011;17980;51.744;7.190;2022-11-20T06:25:23;20.83;;;14.73;;
27145;SDS011;17980;51.744;7.190;2022-11-20T06:27:51;17.33;;;13.23;;
27145;SDS011;17980;51.744;7.190;2022-11-20T06:30:18;17.97;;;13.67;;
27145;SDS011;17980;51.744;7.190;2022-11-20T06:32:55;19.67;;;14.23;;
27145;SDS011;17980;51.744;7.190;2022-11-20T06:35:22;23.10;;;15.73;;
27145;SDS011;17980;51.744;7.190;2022-11-20T06:37:50;27.73;;;17.43;;
27145;SDS011;17980;51.744;7.190;2022-11-20T06:40:17;26.90;;;17.63;;
27145;SDS011;17980;51.744;7.190;2022-11-20T06:42:55;25.70;;;17.63;;
27145;SDS011;17980;51.744;7.190;2022-11-20T06:45:22;27.63;;;17.17;;
27145;SDS011;17980;51.744;7.190;2022-11-20T06:47:59;25.53;;;16.93;;
27145;SDS011;17980;51.744;7.190;2022-11-20T06:50:27;25.70;;;17.20;;
27145;SDS011;17980;51.744;7.190;2022-11-20T06:52:54;26.00;;;17.23;;
27145;SDS011;17980;51.744;7.190;2022-11-20T06:55:31;26.87;;;17.90;;
27145;SDS011;17980;51.744;7.190;2022-11-20T06:57:58;34.07;;;18.43;;
27145;SDS011;17980;51.744;7.190;2022-11-20T07:00:25;33.57;;;18.13;;
27145;SDS011;17980;51.744;7.190;2022-11-20T07:02:53;40.00;;;16.83;;
27145;SDS011;17980;51.744;7.190;2022-11-20T07:05:29;168.53;;;24.47;;
27145;SDS011;17980;51.744;7.190;2022-11-20T07:10:33;73.43;;;20.93;;
27145;SDS011;17980;51.744;7.190;2022-11-20T07:13:00;28.43;;;17.60;;
27145;SDS011;17980;51.744;7.190;2022-11-20T07:15:37;26.07;;;18.33;;
27145;SDS011;17980;51.744;7.190;2022-11-20T07:18:04;25.07;;;16.43;;
27145;SDS011;17980;51.744;7.190;2022-11-20T07:20:41;27.67;;;18.40;;
27145;SDS011;17980;51.744;7.190;2022-11-20T07:23:08;27.80;;;18.03;;
27145;SDS011;17980;51.744;7.190;2022-11-20T07:25:45;28.63;;;18.27;;
27145;SDS011;17980;51.744;7.190;2022-11-20T07:28:12;35.97;;;20.03;;
27145;SDS011;17980;51.744;7.190;2022-11-20T07:30:39;48.40;;;19.33;;
27145;SDS011;17980;51.744;7.190;2022-11-20T07:33:07;72.93;;;22.13;;
27145;SDS011;17980;51.744;7.190;2022-11-20T07:35:43;131.27;;;22.53;;
27145;SDS011;17980;51.744;7.190;2022-11-20T07:38:11;158.60;;;22.03;;
27145;SDS011;17980;51.744;7.190;2022-11-20T07:40:38;83.97;;;21.07;;
27145;SDS011;17980;51.744;7.190;2022-11-20T07:43:05;39.80;;;19.00;;
27145;SDS011;17980;51.744;7.190;2022-11-20T07:45:43;29.20;;;18.97;;
27145;SDS011;17980;51.744;7.190;2022-11-20T07:50:46;28.10;;;18.70;;
27145;SDS011;17980;51.744;7.190;2022-11-20T07:55:49;28.77;;;18.87;;
27145;SDS011;17980;51.744;7.190;2022-11-20T07:58:18;27.00;;;18.53;;
27145;SDS011;17980;51.744;7.190;2022-11-20T08:00:45;26.83;;;17.20;;
27145;SDS011;17980;51.744;7.190;2022-11-20T08:05:49;25.20;;;18.20;;
27145;SDS011;17980;51.744;7.190;2022-11-20T08:08:16;23.83;;;17.30;;
27145;SDS011;17980;51.744;7.190;2022-11-20T08:10:44;24.40;;;16.87;;
27145;SDS011;17980;51.744;7.190;2022-11-20T08:13:11;23.90;;;16.60;;
27145;SDS011;17980;51.744;7.190;2022-11-20T08:15:48;22.37;;;16.83;;
27145;SDS011;17980;51.744;7.190;2022-11-20T08:18:16;26.70;;;18.53;;
27145;SDS011;17980;51.744;7.190;2022-11-20T08:20:53;27.27;;;19.57;;
27145;SDS011;17980;51.744;7.190;2022-11-20T08:23:22;24.43;;;17.73;;
27145;SDS011;17980;51.744;7.190;2022-11-20T08:25:59;21.50;;;15.97;;
27145;SDS011;17980;51.744;7.190;2022-11-20T08:28:27;22.57;;;15.10;;
27145;SDS011;17980;51.744;7.190;2022-11-20T08:31:04;23.17;;;15.83;;
27145;SDS011;17980;51.744;7.190;2022-11-20T08:33:31;17.90;;;14.57;;
27145;SDS011;17980;51.744;7.190;2022-11-20T08:36:09;19.50;;;15.33;;
27145;SDS011;17980;51.744;7.190;2022-11-20T08:38:36;28.60;;;16.07;;
27145;SDS011;17980;51.744;7.190;2022-11-20T08:41:03;24.00;;;16.53;;
27145;SDS011;17980;51.744;7.190;2022-11-20T08:43:50;23.97;;;17.03;;
27145;SDS011;17980;51.744;7.190;2022-11-20T08:46:28;27.33;;;17.83;;
27145;SDS011;17980;51.744;7.190;2022-11-20T08:48:57;56.10;;;20.10;;
27145;SDS011;17980;51.744;7.190;2022-11-20T08:51:34;45.20;;;20.43;;
27145;SDS011;17980;51.744;7.190;2022-11-20T08:56:38;35.07;;;20.27;;
27145;SDS011;17980;51.744;7.190;2022-11-20T08:59:05;32.53;;;20.03;;
27145;SDS011;17980;51.744;7.190;2022-11-20T09:01:42;43.23;;;21.57;;
27145;SDS011;17980;51.744;7.190;2022-11-20T09:06:45;87.77;;;21.87;;
27145;SDS011;17980;51.744;7.190;2022-11-20T09:14:26;224.23;;;25.87;;
27145;SDS011;17980;51.744;7.190;2022-11-20T09:19:37;315.53;;;32.43;;
27145;SDS011;17980;51.744;7.190;2022-11-20T09:22:05;178.67;;;28.80;;
27145;SDS011;17980;51.744;7.190;2022-11-20T09:24:32;189.03;;;25.93;;
27145;SDS011;17980;51.744;7.190;2022-11-20T09:27:09;244.20;;;25.37;;
27145;SDS011;17980;51.744;7.190;2022-11-20T09:29:36;260.03;;;25.93;;
27145;SDS011;17980;51.744;7.190;2022-11-20T09:32:03;176.40;;;22.77;;
27145;SDS011;17980;51.744;7.190;2022-11-20T09:34:31;126.70;;;20.57;;
27145;SDS011;17980;51.744;7.190;2022-11-20T09:37:08;198.23;;;104.00;;
27145;SDS011;17980;51.744;7.190;2022-11-20T09:39:36;43.97;;;25.83;;
27145;SDS011;17980;51.744;7.190;2022-11-20T09:45:13;26.73;;;18.23;;
27145;SDS011;17980;51.744;7.190;2022-11-20T09:47:48;36.07;;;20.57;;
27145;SDS011;17980;51.744;7.190;2022-11-20T09:50:30;32.87;;;20.93;;
27145;SDS011;17980;51.744;7.190;2022-11-20T09:53:04;29.13;;;20.23;;
27145;SDS011;17980;51.744;7.190;2022-11-20T09:55:37;29.03;;;20.57;;
27145;SDS011;17980;51.744;7.190;2022-11-20T09:58:06;35.27;;;26.30;;
27145;SDS011;17980;51.744;7.190;2022-11-20T10:00:35;29.40;;;22.53;;
27145;SDS011;17980;51.744;7.190;2022-11-20T10:03:14;40.30;;;29.60;;
27145;SDS011;17980;51.744;7.190;2022-11-20T10:05:45;21.93;;;16.77;;
27145;SDS011;17980;51.744;7.190;2022-11-20T10:08:27;23.87;;;16.77;;
27145;SDS011;17980;51.744;7.190;2022-11-20T10:10:58;27.13;;;20.10;;
27145;SDS011;17980;51.744;7.190;2022-11-20T10:13:38;26.90;;;21.87;;
27145;SDS011;17980;51.744;7.190;2022-11-20T10:16:11;22.00;;;17.87;;
27145;SDS011;17980;51.744;7.190;2022-11-20T10:18:54;24.30;;;17.43;;
27145;SDS011;17980;51.744;7.190;2022-11-20T10:21:29;21.97;;;16.97;;
27145;SDS011;17980;51.744;7.190;2022-11-20T10:24:14;31.23;;;19.43;;
27145;SDS011;17980;51.744;7.190;2022-11-20T10:26:48;23.13;;;18.03;;
27145;SDS011;17980;51.744;7.190;2022-11-20T10:29:27;21.13;;;17.10;;
27145;SDS011;17980;51.744;7.190;2022-11-20T10:31:57;22.00;;;17.60;;
27145;SDS011;17980;51.744;7.190;2022-11-20T10:34:38;22.60;;;16.77;;
27145;SDS011;17980;51.744;7.190;2022-11-20T10:37:10;22.93;;;16.00;;
27145;SDS011;17980;51.744;7.190;2022-11-20T10:39:41;28.40;;;16.90;;
27145;SDS011;17980;51.744;7.190;2022-11-20T10:42:12;19.13;;;15.87;;
27145;SDS011;17980;51.744;7.190;2022-11-20T10:44:51;20.60;;;14.70;;
27145;SDS011;17980;51.744;7.190;2022-11-20T10:47:27;22.07;;;15.67;;
27145;SDS011;17980;51.744;7.190;2022-11-20T10:52:49;19.10;;;15.10;;
27145;SDS011;17980;51.744;7.190;2022-11-20T10:55:30;18.97;;;14.60;;
27145;SDS011;17980;51.744;7.190;2022-11-20T10:58:03;20.77;;;16.43;;
27145;SDS011;17980;51.744;7.190;2022-11-20T11:00:32;23.83;;;18.13;;
27145;SDS011;17980;51.744;7.190;2022-11-20T11:03:14;18.07;;;14.93;;
27145;SDS011;17980;51.744;7.190;2022-11-20T11:05:44;19.73;;;15.67;;
27145;SDS011;17980;51.744;7.190;2022-11-20T11:08:22;21.97;;;16.20;;
27145;SDS011;17980;51.744;7.190;2022-11-20T11:10:54;19.77;;;16.20;;
27145;SDS011;17980;51.744;7.190;2022-11-20T11:13:24;25.27;;;17.43;;
27145;SDS011;17980;51.744;7.190;2022-11-20T11:15:53;21.60;;;17.03;;
27145;SDS011;17980;51.744;7.190;2022-11-20T11:18:30;21.17;;;17.07;;
27145;SDS011;17980;51.744;7.190;2022-11-20T11:20:59;22.67;;;17.47;;
27145;SDS011;17980;51.744;7.190;2022-11-20T11:23:37;20.07;;;15.03;;
27145;SDS011;17980;51.744;7.190;2022-11-20T11:26:06;19.13;;;14.63;;
27145;SDS011;17980;51.744;7.190;2022-11-20T11:28:40;18.43;;;15.30;;
27145;SDS011;17980;51.744;7.190;2022-11-20T11:31:22;19.70;;;15.20;;
27145;SDS011;17980;51.744;7.190;2022-11-20T11:33:50;19.50;;;15.53;;
27145;SDS011;17980;51.744;7.190;2022-11-20T11:36:17;17.00;;;14.23;;
27145;SDS011;17980;51.744;7.190;2022-11-20T11:38:56;18.33;;;14.47;;
27145;SDS011;17980;51.744;7.190;2022-11-20T11:41:24;19.03;;;15.33;;
27145;SDS011;17980;51.744;7.190;2022-11-20T11:43:54;16.73;;;13.87;;
27145;SDS011;17980;51.744;7.190;2022-11-20T11:46:32;18.77;;;14.60;;
27145;SDS011;17980;51.744;7.190;2022-11-20T11:49:08;18.47;;;13.97;;
27145;SDS011;17980;51.744;7.190;2022-11-20T11:51:41;19.23;;;15.80;;
27145;SDS011;17980;51.744;7.190;2022-11-20T11:54:19;20.47;;;14.63;;
27145;SDS011;17980;51.744;7.190;2022-11-20T11:56:49;18.53;;;15.10;;
27145;SDS011;17980;51.744;7.190;2022-11-20T11:59:21;21.53;;;15.00;;
27145;SDS011;17980;51.744;7.190;2022-11-20T12:01:58;21.37;;;15.57;;
27145;SDS011;17980;51.744;7.190;2022-11-20T12:04:37;18.73;;;14.90;;
27145;SDS011;17980;51.744;7.190;2022-11-20T12:07:07;19.93;;;15.17;;
27145;SDS011;17980;51.744;7.190;2022-11-20T12:09:41;21.63;;;16.10;;
27145;SDS011;17980;51.744;7.190;2022-11-20T12:12:10;19.90;;;16.40;;
27145;SDS011;17980;51.744;7.190;2022-11-20T12:14:49;21.53;;;16.27;;
27145;SDS011;17980;51.744;7.190;2022-11-20T12:17:18;19.43;;;15.13;;
27145;SDS011;17980;51.744;7.190;2022-11-20T12:19:45;23.17;;;17.07;;
27145;SDS011;17980;51.744;7.190;2022-11-20T12:22:25;23.90;;;16.63;;
27145;SDS011;17980;51.744;7.190;2022-11-20T12:24:56;23.90;;;17.87;;
27145;SDS011;17980;51.744;7.190;2022-11-20T12:30:40;25.77;;;17.23;;
27145;SDS011;17980;51.744;7.190;2022-11-20T12:33:25;25.57;;;18.20;;
27145;SDS011;17980;51.744;7.190;2022-11-20T12:36:16;24.07;;;17.27;;
27145;SDS011;17980;51.744;7.190;2022-11-20T12:38:59;24.80;;;18.07;;
27145;SDS011;17980;51.744;7.190;2022-11-20T12:41:45;23.63;;;16.40;;
27145;SDS011;17980;51.744;7.190;2022-11-20T12:47:30;24.43;;;17.53;;
27145;SDS011;17980;51.744;7.190;2022-11-20T12:50:01;26.07;;;18.20;;
27145;SDS011;17980;51.744;7.190;2022-11-20T12:52:46;22.53;;;16.57;;
27145;SDS011;17980;51.744;7.190;2022-11-20T12:55:20;23.67;;;16.57;;
27145;SDS011;17980;51.744;7.190;2022-11-20T12:57:54;22.17;;;17.03;;
27145;SDS011;17980;51.744;7.190;2022-11-20T13:00:25;22.87;;;18.53;;
27145;SDS011;17980;51.744;7.190;2022-11-20T13:06:19;21.60;;;16.47;;
27145;SDS011;17980;51.744;7.190;2022-11-20T13:08:49;22.40;;;16.70;;
27145;SDS011;17980;51.744;7.190;2022-11-20T13:11:27;21.40;;;17.17;;
27145;SDS011;17980;51.744;7.190;2022-11-20T13:14:09;24.10;;;18.37;;
27145;SDS011;17980;51.744;7.190;2022-11-20T13:16:50;26.00;;;18.93;;
27145;SDS011;17980;51.744;7.190;2022-11-20T13:19:19;24.97;;;17.47;;
27145;SDS011;17980;51.744;7.190;2022-11-20T13:21:50;24.60;;;17.80;;
27145;SDS011;17980;51.744;7.190;2022-11-20T13:24:27;26.07;;;18.17;;
27145;SDS011;17980;51.744;7.190;2022-11-20T13:27:17;23.80;;;16.90;;
27145;SDS011;17980;51.744;7.190;2022-11-20T13:30:10;24.50;;;17.93;;
27145;SDS011;17980;51.744;7.190;2022-11-20T13:32:49;28.00;;;18.93;;
27145;SDS011;17980;51.744;7.190;2022-11-20T13:35:28;22.63;;;17.80;;
27145;SDS011;17980;51.744;7.190;2022-11-20T13:38:16;24.37;;;16.83;;
27145;SDS011;17980;51.744;7.190;2022-11-20T13:40:50;21.77;;;16.40;;
27145;SDS011;17980;51.744;7.190;2022-11-20T13:43:28;23.57;;;17.80;;
27145;SDS011;17980;51.744;7.190;2022-11-20T13:46:01;25.97;;;18.40;;
27145;SDS011;17980;51.744;7.190;2022-11-20T13:48:31;22.93;;;17.23;;
27145;SDS011;17980;51.744;7.190;2022-11-20T13:51:10;21.77;;;16.37;;
27145;SDS011;17980;51.744;7.190;2022-11-20T13:56:49;21.43;;;16.00;;
27145;SDS011;17980;51.744;7.190;2022-11-20T13:59:26;23.50;;;16.83;;
27145;SDS011;17980;51.744;7.190;2022-11-20T14:02:08;22.63;;;15.93;;
27145;SDS011;17980;51.744;7.190;2022-11-20T14:04:38;21.77;;;16.33;;
27145;SDS011;17980;51.744;7.190;2022-11-20T14:07:09;23.80;;;16.53;;
27145;SDS011;17980;51.744;7.190;2022-11-20T14:09:37;19.57;;;15.60;;
27145;SDS011;17980;51.744;7.190;2022-11-20T14:12:14;20.27;;;16.10;;
27145;SDS011;17980;51.744;7.190;2022-11-20T14:14:52;20.73;;;14.60;;
27145;SDS011;17980;51.744;7.190;2022-11-20T14:17:21;23.80;;;15.57;;
27145;SDS011;17980;51.744;7.190;2022-11-20T14:19:51;20.33;;;14.63;;
27145;SDS011;17980;51.744;7.190;2022-11-20T14:22:20;18.93;;;14.07;;
27145;SDS011;17980;51.744;7.190;2022-11-20T14:25:02;21.03;;;15.43;;
27145;SDS011;17980;51.744;7.190;2022-11-20T14:27:33;18.00;;;14.57;;
27145;SDS011;17980;51.744;7.190;2022-11-20T14:30:02;19.90;;;15.43;;
27145;SDS011;17980;51.744;7.190;2022-11-20T14:32:40;19.57;;;15.37;;
27145;SDS011;17980;51.744;7.190;2022-11-20T14:35:09;20.87;;;15.40;;
27145;SDS011;17980;51.744;7.190;2022-11-20T14:37:40;21.17;;;16.30;;
27145;SDS011;17980;51.744;7.190;2022-11-20T14:40:22;22.80;;;16.70;;
27145;SDS011;17980;51.744;7.190;2022-11-20T14:43:00;20.73;;;16.00;;
27145;SDS011;17980;51.744;7.190;2022-11-20T14:45:30;23.03;;;16.63;;
27145;SDS011;17980;51.744;7.190;2022-11-20T14:47:57;28.07;;;18.73;;
27145;SDS011;17980;51.744;7.190;2022-11-20T14:50:27;21.63;;;16.87;;
27145;SDS011;17980;51.744;7.190;2022-11-20T14:52:56;24.63;;;18.03;;
27145;SDS011;17980;51.744;7.190;2022-11-20T14:55:33;25.10;;;17.70;;
27145;SDS011;17980;51.744;7.190;2022-11-20T14:58:02;26.30;;;18.37;;
27145;SDS011;17980;51.744;7.190;2022-11-20T15:00:40;20.03;;;16.23;;
27145;SDS011;17980;51.744;7.190;2022-11-20T15:03:17;25.13;;;18.97;;
27145;SDS011;17980;51.744;7.190;2022-11-20T15:08:20;23.80;;;17.90;;
27145;SDS011;17980;51.744;7.190;2022-11-20T15:13:29;22.97;;;16.77;;
27145;SDS011;17980;51.744;7.190;2022-11-20T15:15:58;20.77;;;15.57;;
27145;SDS011;17980;51.744;7.190;2022-11-20T15:18:28;25.27;;;17.70;;
27145;SDS011;17980;51.744;7.190;2022-11-20T15:21:00;22.17;;;17.43;;
27145;SDS011;17980;51.744;7.190;2022-11-20T15:23:37;21.67;;;17.27;;
27145;SDS011;17980;51.744;7.190;2022-11-20T15:26:04;24.40;;;17.03;;
27145;SDS011;17980;51.744;7.190;2022-11-20T15:28:33;22.37;;;17.23;;
27145;SDS011;17980;51.744;7.190;2022-11-20T15:31:02;23.27;;;17.60;;
27145;SDS011;17980;51.744;7.190;2022-11-20T15:33:40;23.60;;;17.50;;
27145;SDS011;17980;51.744;7.190;2022-11-20T15:36:08;25.50;;;17.27;;
27145;SDS011;17980;51.744;7.190;2022-11-20T15:38:36;21.60;;;17.23;;
27145;SDS011;17980;51.744;7.190;2022-11-20T15:41:03;22.90;;;17.97;;
27145;SDS011;17980;51.744;7.190;2022-11-20T15:43:40;24.03;;;17.60;;
27145;SDS011;17980;51.744;7.190;2022-11-20T15:46:09;23.00;;;17.43;;
27145;SDS011;17980;51.744;7.190;2022-11-20T15:48:41;27.13;;;20.37;;
27145;SDS011;17980;51.744;7.190;2022-11-20T15:51:14;25.17;;;19.20;;